Terminal Aerodrome Forecast
Issued by NWS Twin Cities, MN

Home | Current Version | Previous Version | Graphics & Text | Print | Product List | Glossary On
Versions: 1 2 3 4 5 6 7 8 9 10 11 12 13 14 15 16 17 18 19
000
FTUS43 KMPX 261720
TAFSTC
TAF
KSTC 261720Z 2618/2718 19006KT P6SM FEW040 BKN250
     FM270200 15003KT P6SM OVC150
     FM271000 11004KT P6SM SCT040 OVC100
     FM271500 16007KT P6SM VCSH SCT040 OVC090=

USA.gov is the U.S. government's official web portal to all federal, state and local government web resources and services.